Paterson, Washington
Current Conditions -  °F | °C
As of 11:53 PM on Saturday 27 Dec 2014 (Local Time) from KHRI Reporting Station
Clear Clear  
Wind Chill: 32°   Ceiling: Unl
Heat Index: 40°   Visibility: 10mi
Dew Point: 30°   Wind: 15mph
Humidity: 68%   Direction: 230°SW
Pressure: 30.05"   Gusts: NA
Location:  45.94°N, 119.6°W
Report Text: KHRI 280753Z AUTO 23013KT 10SM CLR 04/M01 A3005 RMK AO2 SLP179 T00441011 400781028
Loading
Personal Weather Stations






























Interactive Weather Map New forecast layout! Learn more

10-Day Weather Forecast

Advertisements
Track Severe Weather on mobile